createdAt,value
2023-01-20T00:14:41.936Z,99849.77
2023-01-20T00:29:31.368Z,99857.23
2023-01-20T00:44:26.105Z,99867.37
2023-01-20T00:59:10.911Z,99879.22
2023-01-20T01:14:00.941Z,99898.86
2023-01-20T01:28:50.736Z,99915.87
2023-01-20T01:43:40.513Z,99931.56
2023-01-20T01:58:35.002Z,99944.27
2023-01-20T02:13:30.222Z,99953.42
2023-01-20T02:28:37.722Z,99957.41
2023-01-20T03:13:55.777Z,100006.19
2023-01-20T03:28:50.561Z,100014.94
2023-01-20T03:43:39.968Z,100032.31
2023-01-20T03:58:29.907Z,100044.50
2023-01-20T04:13:21.159Z,100066.21
2023-01-20T04:28:10.671Z,100068.80
2023-01-20T04:43:00.819Z,100088.80
2023-01-20T04:57:50.352Z,100108.37
2023-01-20T05:12:39.501Z,100120.16
2023-01-20T05:27:29.387Z,100140.60
2023-01-20T05:42:19.053Z,100151.45
2023-01-20T05:57:08.730Z,100170.55
2023-01-20T06:11:57.899Z,100178.83
2023-01-20T06:26:47.787Z,100200.96
2023-01-20T06:41:38.096Z,100208.34
2023-01-20T06:56:28.427Z,100226.16
2023-01-20T07:11:17.606Z,100246.55
2023-01-20T07:26:07.460Z,100270.03
2023-01-20T07:40:59.051Z,100286.52
2023-01-20T07:55:53.891Z,100313.03
2023-01-20T08:10:45.422Z,100328.26
2023-01-20T08:25:35.785Z,100352.59
2023-01-20T08:40:26.280Z,100370.88
2023-01-20T08:55:17.299Z,100380.05
2023-01-20T09:10:07.770Z,100399.16
2023-01-20T09:24:58.597Z,100409.13
2023-01-20T09:40:07.229Z,100418.22
2023-01-20T09:55:09.857Z,100443.41
2023-01-20T10:10:22.779Z,100436.77
2023-01-20T10:25:21.558Z,100446.64
2023-01-20T10:40:17.465Z,100450.40
2023-01-20T10:55:28.744Z,100448.98
2023-01-20T11:10:26.799Z,100448.86
2023-01-20T11:25:26.520Z,100460.53
2023-01-20T11:40:22.882Z,100459.70
2023-01-20T11:55:22.498Z,100469.01
2023-01-20T12:10:21.298Z,100454.72
2023-01-20T12:25:15.138Z,100462.18
2023-01-20T12:40:14.203Z,100474.91
2023-01-20T12:55:27.295Z,100486.27
2023-01-20T13:10:38.538Z,100470.34
2023-01-20T13:25:33.315Z,100468.27
2023-01-20T13:40:33.982Z,100466.80
2023-01-20T13:55:31.354Z,100471.16
2023-01-20T14:10:23.973Z,100477.34
2023-01-20T14:25:21.995Z,100484.50
2023-01-20T14:40:14.931Z,100499.81
2023-01-20T14:55:05.022Z,100505.59
2023-01-20T15:10:04.542Z,100511.87
2023-01-20T15:24:59.066Z,100505.39
2023-01-20T15:39:48.861Z,100516.42
2023-01-20T15:54:38.516Z,100524.95
2023-01-20T16:09:27.570Z,100545.26
2023-01-20T16:24:17.172Z,100546.70
2023-01-20T16:39:07.022Z,100558.99
2023-01-20T16:53:56.719Z,100565.14
2023-01-20T17:08:47.257Z,100577.40
2023-01-20T17:23:37.104Z,100580.91
2023-01-20T17:38:26.613Z,100588.80
2023-01-20T17:53:16.041Z,100599.30
2023-01-20T18:08:11.146Z,100605.81
2023-01-20T18:22:56.755Z,100621.51
2023-01-20T18:37:47.647Z,100631.98
2023-01-20T18:52:39.038Z,100631.14
2023-01-20T19:07:31.649Z,100636.39
2023-01-20T19:22:21.988Z,100642.09
2023-01-20T19:37:12.325Z,100652.61
2023-01-20T19:52:03.206Z,100655.21
2023-01-20T20:06:53.846Z,100657.86
2023-01-20T20:21:43.430Z,100662.69
2023-01-20T20:36:32.588Z,100674.54
2023-01-20T20:51:22.034Z,100674.61
2023-01-20T21:06:11.917Z,100677.25
2023-01-20T21:21:01.838Z,100687.29
2023-01-20T21:35:52.231Z,100701.69
2023-01-20T21:51:00.143Z,100709.57
2023-01-20T22:05:56.212Z,100719.58
2023-01-20T22:20:46.816Z,100733.13
2023-01-20T22:35:36.812Z,100742.30
2023-01-20T22:50:27.103Z,100744.04
2023-01-20T23:05:17.431Z,100764.09
2023-01-20T23:20:07.385Z,100763.26
2023-01-20T23:34:58.260Z,100778.06
2023-01-20T23:49:48.922Z,100776.73
